createdAt,value
2019-02-15T00:02:24.481Z,30.90
2019-02-15T00:07:27.455Z,31.76
2019-02-15T00:12:30.443Z,31.09
2019-02-15T00:18:08.302Z,30.95
2019-02-15T00:23:11.347Z,30.61
2019-02-15T00:28:14.334Z,29.93
2019-02-15T00:33:17.711Z,29.56
2019-02-15T00:38:20.745Z,30.16
2019-02-15T00:43:23.937Z,30.22
2019-02-15T00:48:27.211Z,29.68
2019-02-15T00:53:38.208Z,29.57
2019-02-15T00:58:56.524Z,29.39
2019-02-15T01:04:17.882Z,29.08
2019-02-15T01:09:49.584Z,29.39
2019-02-15T01:14:52.596Z,29.21
2019-02-15T01:19:55.788Z,29.03
2019-02-15T01:24:59.422Z,29.03
2019-02-15T01:30:28.424Z,28.91
2019-02-15T01:35:53.955Z,28.93
2019-02-15T01:41:01.372Z,28.82
2019-02-15T01:46:09.360Z,28.76
2019-02-15T01:51:12.613Z,28.81
2019-02-15T01:56:15.578Z,28.83
2019-02-15T02:01:24.459Z,28.91
2019-02-15T02:06:27.505Z,28.64
2019-02-15T02:11:30.554Z,28.55
2019-02-15T02:16:33.682Z,28.52
2019-02-15T02:21:36.645Z,28.90
2019-02-15T02:26:39.579Z,29.09
2019-02-15T02:31:42.631Z,29.33
2019-02-15T02:36:53.695Z,29.45
2019-02-15T02:41:56.763Z,29.54
2019-02-15T02:46:59.743Z,29.48
2019-02-15T02:52:02.704Z,29.55
2019-02-15T02:57:05.659Z,29.67
2019-02-15T03:02:08.630Z,29.63
2019-02-15T03:07:11.822Z,29.60
2019-02-15T03:12:14.754Z,29.45
2019-02-15T03:17:17.992Z,29.92
2019-02-15T03:22:21.042Z,29.68
2019-02-15T03:27:24.108Z,30.45
2019-02-15T03:32:27.123Z,31.27
2019-02-15T03:37:55.810Z,32.08
2019-02-15T03:42:58.871Z,33.26
2019-02-15T03:48:01.806Z,33.29
2019-02-15T03:53:04.889Z,34.19
2019-02-15T03:58:08.167Z,34.34
2019-02-15T04:03:11.111Z,34.97
2019-02-15T04:08:14.111Z,34.92
2019-02-15T04:13:17.047Z,34.58
2019-02-15T04:18:20.181Z,34.70
2019-02-15T04:23:23.195Z,34.76
2019-02-15T04:28:26.277Z,34.22
2019-02-15T04:33:29.335Z,34.06
2019-02-15T04:38:32.462Z,33.81
2019-02-15T04:43:36.719Z,33.67
2019-02-15T04:48:39.727Z,33.50
2019-02-15T04:53:42.696Z,33.42
2019-02-15T04:58:45.706Z,33.00
2019-02-15T05:03:48.654Z,32.80
2019-02-15T05:08:51.643Z,32.91
2019-02-15T05:13:54.653Z,32.64
2019-02-15T05:18:57.652Z,32.61
2019-02-15T05:24:00.953Z,32.59
2019-02-15T05:29:03.885Z,32.57
2019-02-15T05:34:06.824Z,32.42
2019-02-15T05:39:09.788Z,32.31
2019-02-15T05:44:12.912Z,32.32
2019-02-15T05:49:15.839Z,32.21
2019-02-15T05:54:18.861Z,32.13
2019-02-15T05:59:21.799Z,32.03
2019-02-15T06:04:24.956Z,31.86
2019-02-15T06:09:27.931Z,31.93
2019-02-15T06:14:31.677Z,31.71
2019-02-15T06:19:34.684Z,31.65
2019-02-15T06:24:37.811Z,31.66
2019-02-15T06:29:40.750Z,31.70
2019-02-15T06:34:43.819Z,31.61
2019-02-15T06:39:46.988Z,31.74
2019-02-15T06:44:50.044Z,31.58
2019-02-15T06:49:52.969Z,31.59
2019-02-15T06:54:56.018Z,31.46
2019-02-15T07:00:17.640Z,31.51
2019-02-15T07:05:25.305Z,31.38
2019-02-15T07:10:28.260Z,31.34
2019-02-15T07:15:33.841Z,31.36
2019-02-15T07:20:35.594Z,31.42
2019-02-15T07:25:38.602Z,31.26
2019-02-15T07:30:41.604Z,31.24
2019-02-15T07:35:44.699Z,31.12
2019-02-15T07:40:47.643Z,31.21
2019-02-15T07:45:50.634Z,31.16
2019-02-15T07:50:54.546Z,31.10
2019-02-15T07:55:57.764Z,31.01
2019-02-15T08:01:00.871Z,30.93
2019-02-15T08:06:03.789Z,30.98
2019-02-15T08:11:06.835Z,30.84
2019-02-15T08:16:09.902Z,30.85
2019-02-15T08:21:13.281Z,30.83
2019-02-15T08:26:16.393Z,30.81
2019-02-15T08:31:19.603Z,30.66
2019-02-15T08:36:23.141Z,30.71
2019-02-15T08:41:26.090Z,30.33
2019-02-15T08:46:29.023Z,30.39
2019-02-15T08:51:32.961Z,31.28
2019-02-15T08:56:36.080Z,31.14
2019-02-15T09:01:39.133Z,30.91
2019-02-15T09:06:42.126Z,31.21
2019-02-15T09:11:45.509Z,31.34
2019-02-15T09:16:48.549Z,30.48
2019-02-15T09:21:51.652Z,31.05
2019-02-15T09:26:54.624Z,31.22
2019-02-15T09:31:57.608Z,31.05
2019-02-15T09:37:00.543Z,31.23
2019-02-15T09:42:03.554Z,31.56
2019-02-15T09:47:06.779Z,30.61
2019-02-15T09:52:10.062Z,30.18
2019-02-15T09:57:13.023Z,30.15
2019-02-15T10:02:16.099Z,30.40
2019-02-15T10:07:19.043Z,30.03
2019-02-15T10:12:22.186Z,30.04
2019-02-15T10:17:25.204Z,30.51
2019-02-15T10:22:28.199Z,30.87
2019-02-15T10:27:31.521Z,31.19
2019-02-15T10:32:34.580Z,31.38
2019-02-15T10:37:37.897Z,31.15
2019-02-15T10:42:40.876Z,30.22
2019-02-15T10:47:43.839Z,29.95
2019-02-15T10:52:46.796Z,29.68
2019-02-15T10:57:50.250Z,30.42
2019-02-15T11:02:53.263Z,30.65
2019-02-15T11:07:56.215Z,30.86
2019-02-15T11:12:59.376Z,30.73
2019-02-15T11:18:02.309Z,30.57
2019-02-15T11:23:05.415Z,30.54
2019-02-15T11:28:08.343Z,30.46
2019-02-15T11:33:11.289Z,30.40
2019-02-15T11:38:14.301Z,30.37
2019-02-15T11:43:17.392Z,30.35
2019-02-15T11:48:20.471Z,30.37
2019-02-15T11:53:23.477Z,30.28
2019-02-15T11:58:26.469Z,30.41
2019-02-15T12:03:29.445Z,30.17
2019-02-15T12:08:32.517Z,30.17
2019-02-15T12:13:35.673Z,30.16
2019-02-15T12:18:38.741Z,30.10
2019-02-15T12:23:41.715Z,30.11
2019-02-15T12:28:44.671Z,30.03
2019-02-15T12:33:48.087Z,29.97
2019-02-15T12:38:51.008Z,29.98
2019-02-15T12:43:54.005Z,29.98
2019-02-15T12:48:56.999Z,29.91
2019-02-15T12:53:59.974Z,29.93
2019-02-15T12:59:02.977Z,29.92
2019-02-15T13:04:05.975Z,30.02
2019-02-15T13:09:09.048Z,29.83
2019-02-15T13:14:12.099Z,29.84
2019-02-15T13:19:15.168Z,29.75
2019-02-15T13:24:18.339Z,29.66
2019-02-15T13:29:21.299Z,29.64
2019-02-15T13:34:24.372Z,29.66
2019-02-15T13:39:27.360Z,29.60
2019-02-15T13:44:30.321Z,29.62
2019-02-15T13:49:33.285Z,29.60
2019-02-15T13:54:38.445Z,29.57
2019-02-15T13:59:41.092Z,29.58
2019-02-15T14:04:44.063Z,29.49
2019-02-15T14:09:47.223Z,29.52
2019-02-15T14:14:50.334Z,29.48
2019-02-15T14:19:53.385Z,29.53
2019-02-15T14:24:56.355Z,29.39
2019-02-15T14:29:59.337Z,29.39
2019-02-15T14:35:02.270Z,29.36
2019-02-15T14:40:05.723Z,29.29
2019-02-15T14:45:09.371Z,29.39
2019-02-15T14:50:12.645Z,27.91
2019-02-15T14:55:15.589Z,26.12
2019-02-15T15:00:18.626Z,25.40
2019-02-15T15:05:21.640Z,25.66
2019-02-15T15:10:24.582Z,25.24
2019-02-15T15:15:27.569Z,25.14
2019-02-15T15:20:30.529Z,25.52
2019-02-15T15:25:33.889Z,26.13
2019-02-15T15:30:36.840Z,27.65
2019-02-15T15:35:39.910Z,28.87
2019-02-15T15:40:42.856Z,28.91
2019-02-15T15:45:46.022Z,29.10
2019-02-15T15:50:48.991Z,30.99
2019-02-15T15:55:52.467Z,30.33
2019-02-15T16:00:55.401Z,30.62
2019-02-15T16:06:00.133Z,29.21
2019-02-15T16:11:03.476Z,28.93
2019-02-15T16:16:06.463Z,28.57
2019-02-15T16:21:09.449Z,28.10
2019-02-15T16:26:12.506Z,27.64
2019-02-15T16:31:15.527Z,27.38
2019-02-15T16:36:18.475Z,27.18
2019-02-15T16:41:21.431Z,26.93
2019-02-15T16:46:24.364Z,26.89
2019-02-15T16:51:27.323Z,27.04
2019-02-15T16:56:30.244Z,26.88
2019-02-15T17:01:33.196Z,26.87
2019-02-15T17:06:36.206Z,27.13
2019-02-15T17:11:39.372Z,27.51
2019-02-15T17:16:42.367Z,27.47
2019-02-15T17:21:45.321Z,28.01
2019-02-15T17:26:48.386Z,28.01
2019-02-15T17:31:51.451Z,28.19
2019-02-15T17:36:54.515Z,28.37
2019-02-15T17:41:57.551Z,28.67
2019-02-15T17:47:00.594Z,29.26
2019-02-15T17:52:03.690Z,29.51
2019-02-15T17:57:06.671Z,29.40
2019-02-15T18:02:09.721Z,29.38
2019-02-15T18:07:12.699Z,29.52
2019-02-15T18:12:15.666Z,29.51
2019-02-15T18:17:18.669Z,29.87
2019-02-15T18:22:21.627Z,29.93
2019-02-15T18:27:24.837Z,30.12
2019-02-15T18:32:27.786Z,30.16
2019-02-15T18:37:30.944Z,30.05
2019-02-15T18:42:33.897Z,29.92
2019-02-15T18:47:36.886Z,29.84
2019-02-15T18:52:39.882Z,30.48
2019-02-15T18:57:43.085Z,30.72
2019-02-15T19:02:46.346Z,31.19
2019-02-15T19:07:49.482Z,31.31
2019-02-15T19:12:52.452Z,31.63
2019-02-15T19:17:55.590Z,31.75
2019-02-15T19:22:58.572Z,32.07
2019-02-15T19:28:01.557Z,32.96
2019-02-15T19:33:04.786Z,32.37
2019-02-15T19:38:07.765Z,32.62
2019-02-15T19:43:10.897Z,32.50
2019-02-15T19:48:14.084Z,32.66
2019-02-15T19:53:17.302Z,32.70
2019-02-15T19:58:20.325Z,32.87
2019-02-15T20:03:23.564Z,31.26
2019-02-15T20:08:26.716Z,31.21
2019-02-15T20:13:29.951Z,32.25
2019-02-15T20:18:32.956Z,32.41
2019-02-15T20:23:35.949Z,32.69
2019-02-15T20:28:39.041Z,32.43
2019-02-15T20:33:42.133Z,32.83
2019-02-15T20:38:45.225Z,32.84
2019-02-15T20:43:48.400Z,32.92
2019-02-15T20:49:04.067Z,32.97
2019-02-15T20:53:56.350Z,33.35
2019-02-15T20:58:59.450Z,35.21
2019-02-15T21:04:02.441Z,35.65
2019-02-15T21:09:06.333Z,35.67
2019-02-15T21:14:09.375Z,36.45
2019-02-15T21:19:12.337Z,35.13
2019-02-15T21:24:15.347Z,35.15
2019-02-15T21:29:18.507Z,35.38
2019-02-15T21:34:21.559Z,35.87
2019-02-15T21:39:25.274Z,36.10
2019-02-15T21:44:28.299Z,37.34
2019-02-15T21:49:31.463Z,36.21
2019-02-15T21:54:34.638Z,35.93
2019-02-15T21:59:37.725Z,36.02
2019-02-15T22:04:40.843Z,36.55
2019-02-15T22:09:43.832Z,36.33
2019-02-15T22:14:47.076Z,36.16
2019-02-15T22:19:50.262Z,36.54
2019-02-15T22:24:53.331Z,36.35
2019-02-15T22:29:56.436Z,36.12
2019-02-15T22:34:59.665Z,35.96
2019-02-15T22:40:24.359Z,35.75
2019-02-15T22:45:27.831Z,35.83
2019-02-15T22:50:36.105Z,35.81
2019-02-15T22:55:35.978Z,35.83
2019-02-15T23:00:49.059Z,35.50
2019-02-15T23:05:52.112Z,35.46
2019-02-15T23:10:55.234Z,35.89
2019-02-15T23:15:58.220Z,36.03
2019-02-15T23:21:02.139Z,35.90
2019-02-15T23:26:05.273Z,36.14
2019-02-15T23:31:08.377Z,35.63
2019-02-15T23:36:11.524Z,35.38
2019-02-15T23:41:14.707Z,35.31
2019-02-15T23:46:17.726Z,35.05
2019-02-15T23:51:20.736Z,35.33
2019-02-15T23:56:24.128Z,34.56
